createdAt,value
2022-12-08T00:01:27.307Z,77.67
2022-12-08T00:03:55.438Z,77.92
2022-12-08T00:06:48.837Z,78.08
2022-12-08T00:09:25.877Z,78.81
2022-12-08T00:11:59.349Z,78.17
2022-12-08T00:14:32.131Z,78.63
2022-12-08T00:17:00.233Z,78.58
2022-12-08T00:19:27.558Z,78.34
2022-12-08T00:21:54.959Z,79.11
2022-12-08T00:24:25.435Z,78.61
2022-12-08T00:26:51.885Z,79.36
2022-12-08T00:29:18.895Z,79.63
2022-12-08T00:31:45.464Z,80.02
2022-12-08T00:34:13.871Z,79.62
2022-12-08T00:36:40.792Z,79.47
2022-12-08T00:39:07.353Z,80.07
2022-12-08T00:41:52.636Z,79.87
2022-12-08T00:44:19.733Z,80.68
2022-12-08T00:46:49.432Z,80.06
2022-12-08T00:49:16.986Z,80.21
2022-12-08T00:51:43.959Z,79.50
2022-12-08T00:54:11.638Z,79.65
2022-12-08T00:56:38.462Z,80.81
2022-12-08T00:59:06.742Z,80.66
2022-12-08T01:01:34.213Z,81.71
2022-12-08T01:04:07.660Z,82.69
2022-12-08T01:06:38.496Z,80.18
2022-12-08T01:09:07.217Z,80.22
2022-12-08T01:11:34.682Z,80.00
2022-12-08T01:14:01.519Z,80.72
2022-12-08T01:16:31.247Z,80.77
2022-12-08T01:18:59.249Z,80.72
2022-12-08T01:21:26.362Z,81.47
2022-12-08T01:23:52.812Z,80.53
2022-12-08T01:26:19.840Z,81.64
2022-12-08T01:28:47.115Z,81.43
2022-12-08T01:31:16.813Z,82.12
2022-12-08T01:33:44.058Z,81.47
2022-12-08T01:36:21.457Z,81.89
2022-12-08T01:38:48.060Z,81.44
2022-12-08T01:41:17.175Z,80.74
2022-12-08T01:43:57.505Z,81.37
2022-12-08T01:46:25.622Z,82.09
2022-12-08T01:48:56.951Z,81.83
2022-12-08T01:51:23.855Z,82.91
2022-12-08T01:53:50.834Z,81.92
2022-12-08T01:56:26.286Z,81.87
2022-12-08T01:58:55.702Z,82.57
2022-12-08T02:01:22.391Z,83.09
2022-12-08T02:03:59.042Z,84.63
2022-12-08T02:06:28.876Z,84.60
2022-12-08T02:08:56.651Z,81.83
2022-12-08T02:11:23.279Z,82.45
2022-12-08T02:13:52.341Z,82.43
2022-12-08T02:16:31.427Z,82.80
2022-12-08T02:19:35.067Z,82.71
2022-12-08T02:22:06.986Z,83.01
2022-12-08T02:25:07.278Z,82.81
2022-12-08T02:27:41.517Z,85.73
2022-12-08T02:30:35.995Z,83.05
2022-12-08T02:33:44.198Z,82.75
2022-12-08T02:36:20.569Z,83.21
2022-12-08T02:39:12.213Z,82.58
2022-12-08T02:41:46.749Z,83.04
2022-12-08T02:44:35.491Z,82.87
2022-12-08T02:47:16.632Z,82.68
2022-12-08T02:49:43.427Z,83.31
2022-12-08T02:52:12.618Z,84.41
2022-12-08T02:54:44.003Z,84.34
2022-12-08T02:57:30.766Z,83.10
2022-12-08T03:00:14.093Z,82.90
2022-12-08T03:02:56.630Z,83.10
2022-12-08T03:05:31.876Z,82.81
2022-12-08T03:08:15.051Z,83.80
2022-12-08T03:10:52.451Z,84.96
2022-12-08T03:13:23.540Z,83.55
2022-12-08T03:15:52.931Z,83.61
2022-12-08T03:18:27.668Z,83.06
2022-12-08T03:20:54.777Z,83.03
2022-12-08T03:23:23.177Z,83.31
2022-12-08T03:25:58.432Z,83.40
2022-12-08T03:28:25.481Z,84.40
2022-12-08T03:30:56.567Z,84.42
2022-12-08T03:33:35.643Z,84.50
2022-12-08T03:36:05.057Z,83.85
2022-12-08T03:38:43.710Z,83.63
2022-12-08T03:41:20.207Z,84.04
2022-12-08T03:43:55.464Z,85.87
2022-12-08T03:48:50.262Z,84.10
2022-12-08T03:51:17.408Z,84.18
2022-12-08T03:53:44.252Z,83.79
2022-12-08T03:56:30.709Z,84.15
2022-12-08T03:58:57.813Z,84.05
2022-12-08T04:01:25.197Z,84.26
2022-12-08T04:03:52.427Z,83.87
2022-12-08T04:06:20.338Z,83.91
2022-12-08T04:08:47.616Z,83.85
2022-12-08T04:11:14.366Z,84.53
2022-12-08T04:13:42.329Z,83.88
2022-12-08T04:16:13.979Z,84.15
2022-12-08T04:18:40.531Z,83.97
2022-12-08T04:21:07.162Z,84.28
2022-12-08T04:23:33.825Z,84.23
2022-12-08T04:26:00.761Z,84.49
2022-12-08T04:28:29.602Z,85.25
2022-12-08T04:30:56.339Z,84.56
2022-12-08T04:33:23.341Z,84.66
2022-12-08T04:35:50.307Z,84.36
2022-12-08T04:38:17.507Z,84.19
2022-12-08T04:40:44.213Z,84.73
2022-12-08T04:43:10.963Z,84.52
2022-12-08T04:45:40.227Z,84.61
2022-12-08T04:48:06.843Z,85.11
2022-12-08T04:50:33.488Z,84.49
2022-12-08T04:53:00.169Z,84.47
2022-12-08T04:55:26.820Z,84.25
2022-12-08T04:57:53.366Z,84.54
2022-12-08T05:00:20.014Z,85.07
2022-12-08T05:02:46.570Z,84.62
2022-12-08T05:05:13.183Z,84.48
2022-12-08T05:07:39.847Z,84.84
2022-12-08T05:10:07.429Z,84.83
2022-12-08T05:12:34.340Z,84.81
2022-12-08T05:15:00.888Z,85.40
2022-12-08T05:17:27.445Z,85.35
2022-12-08T05:19:54.115Z,85.65
2022-12-08T05:22:20.605Z,85.09
2022-12-08T05:24:47.803Z,85.44
2022-12-08T05:27:14.984Z,85.88
2022-12-08T05:29:41.856Z,85.76
2022-12-08T05:32:08.546Z,85.58
2022-12-08T05:34:35.198Z,85.94
2022-12-08T05:37:01.820Z,86.16
2022-12-08T05:39:28.649Z,85.57
2022-12-08T05:41:55.220Z,86.03
2022-12-08T05:44:21.751Z,85.70
2022-12-08T05:46:48.557Z,86.50
2022-12-08T05:49:15.127Z,86.48
2022-12-08T05:51:41.698Z,85.90
2022-12-08T05:54:08.426Z,85.96
2022-12-08T05:56:35.025Z,87.05
2022-12-08T05:59:01.853Z,86.19
2022-12-08T06:01:30.952Z,86.31
2022-12-08T06:03:59.993Z,86.64
2022-12-08T06:06:27.546Z,86.58
2022-12-08T06:08:54.183Z,86.59
2022-12-08T06:11:24.183Z,86.21
2022-12-08T06:13:51.452Z,86.27
2022-12-08T06:16:18.888Z,85.94
2022-12-08T06:18:45.889Z,86.11
2022-12-08T06:21:14.695Z,86.34
2022-12-08T06:23:41.452Z,86.35
2022-12-08T06:26:12.072Z,86.16
2022-12-08T06:28:40.494Z,86.07
2022-12-08T06:31:17.044Z,86.24
2022-12-08T06:33:43.955Z,86.08
2022-12-08T06:36:12.774Z,86.24
2022-12-08T06:38:43.280Z,86.27
2022-12-08T06:41:11.608Z,86.58
2022-12-08T06:43:39.220Z,86.10
2022-12-08T06:46:08.861Z,86.39
2022-12-08T06:48:35.669Z,86.54
2022-12-08T06:51:14.525Z,86.06
2022-12-08T06:53:41.775Z,86.12
2022-12-08T06:56:09.755Z,86.27
2022-12-08T06:58:36.466Z,86.12
2022-12-08T07:01:12.803Z,86.47
2022-12-08T07:03:40.266Z,86.54
2022-12-08T07:06:07.107Z,86.44
2022-12-08T07:08:35.010Z,86.39
2022-12-08T07:11:08.068Z,86.49
2022-12-08T07:13:34.865Z,86.14
2022-12-08T07:16:01.604Z,86.49
2022-12-08T07:18:28.199Z,86.15
2022-12-08T07:20:54.651Z,86.22
2022-12-08T07:23:21.225Z,86.53
2022-12-08T07:25:47.762Z,86.99
2022-12-08T07:28:14.476Z,86.43
2022-12-08T07:30:41.133Z,86.50
2022-12-08T07:33:07.687Z,86.51
2022-12-08T07:35:35.358Z,86.61
2022-12-08T07:38:02.812Z,86.69
2022-12-08T07:40:32.224Z,86.75
2022-12-08T07:42:58.914Z,86.80
2022-12-08T07:45:31.237Z,87.40
2022-12-08T07:47:58.454Z,87.83
2022-12-08T07:50:24.969Z,88.62
2022-12-08T07:52:51.565Z,88.68
2022-12-08T07:55:18.121Z,89.37
2022-12-08T07:57:44.704Z,89.62
2022-12-08T08:00:11.944Z,89.23
2022-12-08T08:02:38.867Z,89.79
2022-12-08T08:05:06.464Z,90.84
2022-12-08T08:07:33.231Z,90.32
2022-12-08T08:09:59.956Z,90.22
2022-12-08T08:12:31.833Z,90.26
2022-12-08T08:15:00.881Z,90.15
2022-12-08T08:17:28.563Z,90.35
2022-12-08T08:19:55.452Z,90.95
2022-12-08T08:22:22.437Z,90.26
2022-12-08T08:24:49.008Z,91.08
2022-12-08T08:27:15.554Z,90.29
2022-12-08T08:29:42.155Z,91.21
2022-12-08T08:32:09.043Z,91.32
2022-12-08T08:34:35.748Z,90.48
2022-12-08T08:37:02.605Z,91.17
2022-12-08T08:39:30.279Z,91.06
2022-12-08T08:41:57.078Z,90.71
2022-12-08T08:44:23.989Z,90.52
2022-12-08T08:46:50.841Z,90.85
2022-12-08T08:49:18.629Z,90.24
2022-12-08T08:51:45.265Z,90.40
2022-12-08T08:54:12.220Z,90.29
2022-12-08T08:56:38.771Z,89.39
2022-12-08T08:59:05.558Z,90.28
2022-12-08T09:01:32.528Z,90.48
2022-12-08T09:03:59.644Z,89.38
2022-12-08T09:09:21.520Z,89.25
2022-12-08T09:11:48.914Z,90.54
2022-12-08T09:14:16.039Z,90.54
2022-12-08T09:16:43.297Z,91.05
2022-12-08T09:19:10.166Z,90.06
2022-12-08T09:21:37.055Z,90.45
2022-12-08T09:24:04.172Z,89.38
2022-12-08T09:26:31.060Z,89.38
2022-12-08T09:28:58.320Z,89.91
2022-12-08T09:31:25.599Z,89.68
2022-12-08T09:33:52.452Z,89.72
2022-12-08T09:36:20.028Z,89.00
2022-12-08T09:38:46.851Z,89.04
2022-12-08T09:41:39.276Z,88.03
2022-12-08T09:44:30.187Z,87.76
2022-12-08T09:46:58.957Z,88.95
2022-12-08T09:49:39.902Z,89.13
2022-12-08T09:52:19.032Z,89.08
2022-12-08T09:54:45.873Z,87.83
2022-12-08T09:57:17.147Z,87.77
2022-12-08T09:59:48.040Z,87.93
2022-12-08T10:02:25.374Z,88.75
2022-12-08T10:04:55.405Z,88.23
2022-12-08T10:07:31.104Z,88.62
2022-12-08T10:10:26.451Z,89.17
2022-12-08T10:12:59.342Z,87.49
2022-12-08T10:15:41.007Z,88.92
2022-12-08T10:18:15.664Z,88.69
2022-12-08T10:20:45.476Z,88.56
2022-12-08T10:23:38.877Z,87.28
2022-12-08T10:26:12.488Z,88.56
2022-12-08T10:28:44.785Z,88.69
2022-12-08T10:31:20.974Z,89.03
2022-12-08T10:33:57.591Z,88.64
2022-12-08T10:36:45.071Z,87.54
2022-12-08T10:39:34.104Z,86.76
2022-12-08T10:42:03.208Z,87.49
2022-12-08T10:44:30.163Z,88.49
2022-12-08T10:46:56.916Z,88.43
2022-12-08T10:49:29.411Z,88.04
2022-12-08T10:51:56.130Z,88.14
2022-12-08T10:54:36.020Z,87.33
2022-12-08T10:57:02.735Z,88.24
2022-12-08T10:59:29.621Z,88.07
2022-12-08T11:01:57.239Z,88.43
2022-12-08T11:04:34.784Z,88.30
2022-12-08T11:07:02.965Z,88.37
2022-12-08T11:09:48.849Z,88.28
2022-12-08T11:12:20.640Z,88.36
2022-12-08T11:14:54.654Z,88.09
2022-12-08T11:17:27.748Z,88.26
2022-12-08T11:20:04.134Z,87.59
2022-12-08T11:22:34.419Z,88.37
2022-12-08T11:25:11.031Z,87.90
2022-12-08T11:27:44.401Z,88.30
2022-12-08T11:30:15.668Z,88.46
2022-12-08T11:32:44.966Z,87.88
2022-12-08T11:35:40.094Z,88.17
2022-12-08T11:38:21.508Z,88.27
2022-12-08T11:40:52.457Z,88.10
2022-12-08T11:43:26.458Z,87.60
2022-12-08T11:46:00.181Z,87.74
2022-12-08T11:48:33.707Z,87.91
2022-12-08T11:58:16.824Z,88.14
2022-12-08T12:00:43.564Z,88.19
2022-12-08T12:03:36.252Z,87.86
2022-12-08T12:06:38.092Z,88.12
2022-12-08T12:09:14.810Z,87.17
2022-12-08T12:12:19.338Z,87.31
2022-12-08T12:15:04.727Z,84.71
2022-12-08T12:17:49.843Z,86.67
2022-12-08T12:20:28.604Z,87.33
2022-12-08T12:23:06.018Z,86.90
2022-12-08T12:25:34.853Z,87.19
2022-12-08T12:28:05.896Z,85.69
2022-12-08T12:30:58.595Z,87.56
2022-12-08T12:33:25.953Z,87.37
2022-12-08T12:35:57.464Z,87.22
2022-12-08T12:38:54.113Z,86.22
2022-12-08T12:41:29.566Z,86.51
2022-12-08T12:44:14.665Z,86.65
2022-12-08T12:46:48.626Z,86.21
2022-12-08T12:49:40.420Z,86.46
2022-12-08T12:52:09.999Z,86.40
2022-12-08T12:54:36.594Z,85.56
2022-12-08T12:57:09.483Z,85.52
2022-12-08T12:59:56.372Z,85.88
2022-12-08T13:02:24.963Z,85.62
2022-12-08T13:05:00.753Z,85.91
2022-12-08T13:07:35.950Z,85.73
2022-12-08T13:10:04.980Z,86.06
2022-12-08T13:12:32.254Z,86.14
2022-12-08T13:15:05.283Z,85.92
2022-12-08T13:17:37.672Z,85.76
2022-12-08T13:20:07.529Z,85.82
2022-12-08T13:22:57.601Z,85.94
2022-12-08T13:25:46.561Z,85.43
2022-12-08T13:28:15.898Z,85.38
2022-12-08T13:30:50.610Z,85.70
2022-12-08T13:33:22.080Z,84.62
2022-12-08T13:36:03.323Z,84.86
2022-12-08T13:38:34.106Z,85.23
2022-12-08T13:41:03.612Z,84.91
2022-12-08T13:44:31.163Z,85.27
2022-12-08T13:58:17.953Z,85.16
2022-12-08T14:00:57.101Z,83.61
2022-12-08T14:03:23.895Z,85.10
2022-12-08T14:06:17.933Z,84.11
2022-12-08T14:11:36.119Z,84.50
2022-12-08T14:14:06.718Z,83.68
2022-12-08T14:16:38.388Z,83.82
2022-12-08T14:19:21.755Z,83.22
2022-12-08T14:21:54.008Z,83.99
2022-12-08T14:24:22.247Z,84.99
2022-12-08T14:26:54.834Z,84.38
2022-12-08T14:29:36.708Z,84.49
2022-12-08T14:32:04.750Z,84.53
2022-12-08T14:34:40.414Z,84.69
2022-12-08T14:37:12.712Z,84.56
2022-12-08T14:39:40.907Z,84.50
2022-12-08T14:42:07.785Z,84.33
2022-12-08T14:44:39.077Z,84.48
2022-12-08T14:47:08.120Z,84.13
2022-12-08T14:49:37.039Z,84.44
2022-12-08T14:52:11.234Z,84.40
2022-12-08T14:54:40.221Z,84.93
2022-12-08T14:57:08.087Z,84.81
2022-12-08T14:59:38.036Z,84.42
2022-12-08T15:02:10.661Z,84.62
2022-12-08T15:04:44.186Z,85.23
2022-12-08T15:07:14.182Z,85.43
2022-12-08T15:09:45.197Z,84.78
2022-12-08T15:12:15.040Z,85.25
2022-12-08T15:14:56.875Z,83.13
2022-12-08T15:17:29.021Z,84.45
2022-12-08T15:19:57.413Z,84.07
2022-12-08T15:22:24.669Z,84.64
2022-12-08T15:24:51.437Z,84.74
2022-12-08T15:27:20.817Z,83.50
2022-12-08T15:29:48.646Z,84.10
2022-12-08T15:32:21.228Z,84.68
2022-12-08T15:34:48.247Z,84.93
2022-12-08T15:37:22.416Z,84.11
2022-12-08T15:39:49.668Z,85.03
2022-12-08T15:42:16.800Z,85.17
2022-12-08T15:44:44.448Z,84.53
2022-12-08T15:47:22.105Z,83.94
2022-12-08T15:49:50.486Z,83.53
2022-12-08T15:52:19.939Z,84.79
2022-12-08T15:54:46.656Z,84.58
2022-12-08T15:58:04.084Z,83.57
2022-12-08T16:09:11.978Z,84.49
2022-12-08T16:12:07.657Z,84.03
2022-12-08T16:17:21.831Z,83.01
2022-12-08T16:19:48.574Z,83.12
2022-12-08T16:25:18.189Z,83.87
2022-12-08T16:28:17.432Z,83.22
2022-12-08T16:30:33.624Z,83.62
2022-12-08T16:33:00.467Z,84.59
2022-12-08T16:35:27.284Z,83.90
2022-12-08T16:37:53.975Z,83.90
2022-12-08T16:40:21.194Z,85.02
2022-12-08T16:42:48.568Z,83.76
2022-12-08T16:45:18.385Z,84.47
2022-12-08T16:47:49.093Z,84.58
2022-12-08T16:50:21.144Z,84.45
2022-12-08T16:52:49.115Z,83.59
2022-12-08T16:55:18.215Z,83.46
2022-12-08T16:57:46.245Z,83.96
2022-12-08T17:00:16.494Z,82.82
2022-12-08T17:02:43.541Z,83.97
2022-12-08T17:05:13.789Z,84.04
2022-12-08T17:07:42.902Z,84.33
2022-12-08T17:10:11.511Z,83.87
2022-12-08T17:12:38.619Z,83.28
2022-12-08T17:15:08.292Z,82.92
2022-12-08T17:17:35.853Z,84.63
2022-12-08T17:20:08.488Z,83.74
2022-12-08T17:22:35.750Z,84.06
2022-12-08T17:25:02.982Z,84.70
2022-12-08T17:27:30.045Z,84.32
2022-12-08T17:29:57.537Z,84.25
2022-12-08T17:32:24.571Z,84.24
2022-12-08T17:34:51.355Z,84.22
2022-12-08T17:37:18.288Z,84.17
2022-12-08T17:39:45.323Z,83.59
2022-12-08T17:42:12.093Z,83.93
2022-12-08T17:44:39.216Z,82.98
2022-12-08T17:47:05.868Z,83.32
2022-12-08T17:49:33.982Z,83.39
2022-12-08T17:52:04.140Z,83.27
2022-12-08T17:54:31.398Z,82.94
2022-12-08T17:56:58.922Z,83.56
2022-12-08T17:59:27.579Z,83.66
2022-12-08T18:01:55.538Z,83.85
2022-12-08T18:04:22.562Z,83.30
2022-12-08T18:06:49.439Z,83.99
2022-12-08T18:09:16.179Z,84.39
2022-12-08T18:11:44.164Z,84.27
2022-12-08T18:14:11.933Z,84.12
2022-12-08T18:16:42.210Z,84.54
2022-12-08T18:19:10.403Z,83.21
2022-12-08T18:21:37.595Z,83.59
2022-12-08T18:24:05.189Z,82.72
2022-12-08T18:26:31.996Z,83.34
2022-12-08T18:28:58.676Z,83.47
2022-12-08T18:31:25.618Z,83.47
2022-12-08T18:33:53.553Z,83.16
2022-12-08T18:36:23.466Z,83.14
2022-12-08T18:38:51.655Z,82.15
2022-12-08T18:41:23.652Z,82.76
2022-12-08T18:43:50.783Z,82.51
2022-12-08T18:46:17.412Z,81.98
2022-12-08T18:48:47.261Z,81.85
2022-12-08T18:51:20.001Z,82.18
2022-12-08T18:53:47.415Z,81.68
2022-12-08T18:56:26.068Z,81.31
2022-12-08T18:58:59.834Z,81.82
2022-12-08T19:01:30.139Z,82.27
2022-12-08T19:04:26.845Z,82.56
2022-12-08T19:06:46.214Z,82.01
2022-12-08T19:09:13.083Z,82.06
2022-12-08T19:11:40.083Z,81.82
2022-12-08T19:14:07.563Z,82.01
2022-12-08T19:16:34.379Z,82.81
2022-12-08T19:19:01.094Z,82.85
2022-12-08T19:21:28.552Z,83.71
2022-12-08T19:23:58.438Z,83.59
2022-12-08T19:26:27.872Z,82.75
2022-12-08T19:28:54.603Z,82.66
2022-12-08T19:31:21.348Z,82.76
2022-12-08T19:33:48.090Z,82.71
2022-12-08T19:36:20.877Z,82.59
2022-12-08T19:39:06.238Z,83.67
2022-12-08T19:41:51.870Z,82.62
2022-12-08T19:44:43.624Z,83.06
2022-12-08T19:47:10.345Z,82.01
2022-12-08T19:49:37.396Z,81.78
2022-12-08T19:52:05.059Z,82.71
2022-12-08T19:54:32.295Z,83.69
2022-12-08T19:56:58.830Z,83.09
2022-12-08T19:59:26.572Z,83.97
2022-12-08T20:01:55.926Z,83.72
2022-12-08T20:04:24.148Z,82.90
2022-12-08T20:06:52.243Z,82.86
2022-12-08T20:09:19.535Z,81.81
2022-12-08T20:11:46.387Z,82.48
2022-12-08T20:14:13.145Z,82.19
2022-12-08T20:16:41.816Z,82.40
2022-12-08T20:19:09.454Z,82.06
2022-12-08T20:21:36.105Z,82.22
2022-12-08T20:24:04.552Z,81.60
2022-12-08T20:26:31.238Z,81.73
2022-12-08T20:28:57.726Z,81.63
2022-12-08T20:31:27.298Z,82.08
2022-12-08T20:33:54.338Z,81.65
2022-12-08T20:36:22.077Z,81.68
2022-12-08T20:38:50.195Z,82.02
2022-12-08T20:41:17.810Z,81.57
2022-12-08T20:43:45.974Z,81.38
2022-12-08T20:46:15.187Z,81.67
2022-12-08T20:48:42.904Z,81.46
2022-12-08T20:51:13.471Z,81.63
2022-12-08T20:53:40.477Z,81.41
2022-12-08T20:56:07.432Z,81.33
2022-12-08T20:58:34.161Z,81.19
2022-12-08T21:01:01.207Z,81.45
2022-12-08T21:03:28.056Z,81.22
2022-12-08T21:05:54.927Z,80.62
2022-12-08T21:08:24.979Z,80.57
2022-12-08T21:10:55.749Z,80.63
2022-12-08T21:13:22.712Z,81.53
2022-12-08T21:15:49.955Z,80.75
2022-12-08T21:18:17.357Z,81.47
2022-12-08T21:20:44.609Z,81.02
2022-12-08T21:23:13.267Z,81.10
2022-12-08T21:25:42.314Z,81.49
2022-12-08T21:28:10.248Z,81.52
2022-12-08T21:30:39.843Z,81.53
2022-12-08T21:33:06.655Z,81.54
2022-12-08T21:35:33.502Z,81.39
2022-12-08T21:38:00.597Z,81.18
2022-12-08T21:40:27.384Z,80.95
2022-12-08T21:42:54.230Z,82.12
2022-12-08T21:45:22.071Z,82.04
2022-12-08T21:47:49.692Z,82.48
2022-12-08T21:50:17.719Z,82.30
2022-12-08T21:52:46.944Z,82.44
2022-12-08T21:55:15.358Z,81.95
2022-12-08T21:57:42.824Z,81.28
2022-12-08T22:00:15.459Z,81.71
2022-12-08T22:02:42.571Z,82.21
2022-12-08T22:05:10.024Z,82.14
2022-12-08T22:07:39.953Z,82.34
2022-12-08T22:10:08.721Z,82.94
2022-12-08T22:12:37.510Z,82.72
2022-12-08T22:15:06.554Z,82.84
2022-12-08T22:17:37.569Z,82.26
2022-12-08T22:20:07.848Z,82.05
2022-12-08T22:22:35.376Z,82.48
2022-12-08T22:25:03.638Z,82.23
2022-12-08T22:27:30.486Z,81.61
2022-12-08T22:29:57.136Z,81.35
2022-12-08T22:32:24.034Z,81.49
2022-12-08T22:34:51.014Z,81.33
2022-12-08T22:37:17.827Z,81.82
2022-12-08T22:39:44.406Z,82.12
2022-12-08T22:42:11.234Z,81.83
2022-12-08T22:44:37.851Z,81.08
2022-12-08T22:47:04.998Z,79.55
2022-12-08T22:49:31.768Z,79.90
2022-12-08T22:51:58.955Z,80.44
2022-12-08T22:54:25.825Z,81.18
2022-12-08T22:56:52.353Z,80.91
2022-12-08T22:59:18.870Z,82.12
2022-12-08T23:01:45.467Z,81.69
2022-12-08T23:04:17.352Z,82.02
2022-12-08T23:06:44.206Z,82.50
2022-12-08T23:09:11.313Z,81.85
2022-12-08T23:11:38.118Z,80.24
2022-12-08T23:14:04.862Z,80.62
2022-12-08T23:16:32.020Z,81.21
2022-12-08T23:18:59.157Z,80.18
2022-12-08T23:21:26.005Z,81.00
2022-12-08T23:23:52.601Z,82.48
2022-12-08T23:26:23.842Z,80.56
2022-12-08T23:28:51.304Z,82.05
2022-12-08T23:31:18.917Z,82.29
2022-12-08T23:33:46.156Z,81.82
2022-12-08T23:36:13.787Z,81.21
2022-12-08T23:38:40.453Z,81.67
2022-12-08T23:41:09.060Z,82.61
2022-12-08T23:43:36.517Z,81.83
2022-12-08T23:46:04.649Z,80.91
2022-12-08T23:48:34.957Z,80.17
2022-12-08T23:51:01.998Z,82.95
2022-12-08T23:53:33.171Z,82.41
2022-12-08T23:56:01.858Z,81.24
2022-12-08T23:58:30.881Z,81.78
